This is the latest recevied weather packets stored in our database for station/object SP2OFR-13. If no packets are shown the sender has not sent any weather packets the latest 10 day(s).
| Time | Temp. | Humidity | Pressure | Rain* | Wind** | Luminosity | Snow |
|---|---|---|---|---|---|---|---|
| 1778323133 | 16.67° C | 29% | 1022.8 hPa | 0 mm | - | - | - |
| 1778322532 | 17.22° C | 33% | 1022.7 hPa | 0 mm | - | - | - |
| 1778321931 | 16.67° C | 37% | 1021.8 hPa | 0 mm | - | - | - |
| 1778321330 | 16.11° C | 40% | 1024.8 hPa | 0 mm | - | - | - |
| 1778320729 | 15° C | 43% | 1024.8 hPa | 0 mm | - | - | - |
| 1778320129 | 16.11° C | 40% | 1024.8 hPa | 0 mm | - | - | - |
| 1778319528 | 15.56° C | 42% | 1023.8 hPa | 0 mm | - | - | - |
| 1778318930 | 15° C | 44% | 1023.3 hPa | 0 mm | - | - | - |
| 1778318326 | 14.44° C | 46% | 1022.8 hPa | 0 mm | - | - | - |
| 1778317726 | 14.44° C | 48% | 1024.8 hPa | 0 mm | - | - | - |
| 1778317124 | 15° C | 45% | 1024.8 hPa | 0 mm | - | - | - |
| 1778316523 | 15° C | 48% | 1024.8 hPa | 0 mm | - | - | - |
| 1778315923 | 13.89° C | 49% | 1023.8 hPa | 0 mm | - | - | - |
| 1778315322 | 14.44° C | 51% | 1023.8 hPa | 0 mm | - | - | - |
| 1778314721 | 13.89° C | 51% | 1023.8 hPa | 0 mm | - | - | - |
| 1778314120 | 15.56° C | 45% | 1024.8 hPa | 0 mm | - | - | - |
| 1778313520 | 14.44° C | 50% | 1024.8 hPa | 0 mm | - | - | - |
| 1778312919 | 13.89° C | 52% | 1024.3 hPa | 0 mm | - | - | - |
| 1778312318 | 13.89° C | 53% | 1023.8 hPa | 0 mm | - | - | - |
| 1778311717 | 13.89° C | 55% | 1025.8 hPa | 0 mm | - | - | - |
| 1778311116 | 12.78° C | 59% | 1025.8 hPa | 0 mm | - | - | - |
| 1778310515 | 12.78° C | 62% | 1025.8 hPa | 0 mm | - | - | - |
| 1778309915 | 11.67° C | 65% | 1025.9 hPa | 0 mm | - | - | - |
| 1778309314 | 11.67° C | 66% | 1025.9 hPa | 0 mm | - | - | - |
| 1778308713 | 11.11° C | 68% | 1023.9 hPa | 0 mm | - | - | - |
* Rain latest hour (hover to see other rain measurements)
** Current wind speed in m/s (hover to see current wind gust speed)